航空気象通報

ウインドサーファーのための航空気象通報による風予報です。

2/17-2/18の航空気象通報(国内、海外)

2012年02月17日 22時25分19秒 | TAF

羽田空港
TAF RJTT 170845Z 1709/1812 04014KT 9000 FEW010 BKN025
      TEMPO 1711/1718 3000 -SHSN FEW004 BKN007
      BECMG 1721/1724 34018KT
日本時間17日18時-18日06時:040度から14ノットの風
06-09時:風が変化
09-21時:340度から18ノットの風

但し、17日20時-18日03時の間:ときどき

静岡空港
TAF RJNS 170844Z 1709/1812 27016KT 9999 FEW030
      TEMPO 1709/1712 27016G28KT
日本時間17日18時-18日21時:270度から16ノットの風
但し、17日18-21時の間:ときどき270度から16ノット、突風28ノット

福岡空港
TAF RJFF 170841Z 1709/1812 31013KT 9999 -SHSN FEW015 SCT025 BKN035
      TEMPO 1709/1714 31017G27KT
      TEMPO 1716/1718 3000 -SHSN
      TEMPO 1718/1724 31017G27KT 3000 -SHSN
日本時間17日18時-18日21時:310度から13ノットの風
但し、17日18-23時の間:ときどき310度から17ノット、突風27ノット
但し、18日03-09時の間:ときどき310度から17ノット、突風27ノット

那覇空港
TAF ROAH 170841Z 1709/1812 02018KT 9000 SCT015 BKN035
日本時間17日18時-18日21時:020度から18ノットの風

マウイのカフルイ空港
TAF PHOG 171141Z 1712/1812 06010G18KT P6SM FEW035 SCT060 BKN250
     FM171900 05018G28KT P6SM FEW060
     FM180500 05012G18KT P6SM SCT060
      AMD LTD TO WX VIS AND WIND TIL 171600
ハワイ時間17日02-09時:060度から10ノット、突風18ノット
09-19時:050度から18ノット、突風28ノット
19時-18日02時:050度から12ノット、突風18ノット

サイパン空港
TAF PGSN 171120Z 1712/1812 08008KT P6SM VCSH SCT015 SCT090
     FM172300 09015G22KT P6SM VCSH SCT020 SCT040
     FM180900 07008KT P6SM VCSH SCT018
マリアナ時間17日22時-18日09時:080度から8ノットの風
09-19時:090度から15ノット、突風22ノット
19-22時:070度から8ノットの風

コメント